Menu Horizontal
luftaufnahme
Willkommen auf der Webseite der privaten Wetterstation -- Taufkirchen an der Pram -- 48°24'29,52" Nord  <>  13°32'13,20" Ost
Wetterdaten - Sonntag, 09.12.2018 - Taufkirchen an der Pram     336 m über NN
Wetterdaten: aktuell Sonntag, 09.12.2018 23:50
Datum Zeit Temp. A. Feuchte A. Luftdruck Regen Wind Sonnenschein UV Solar Windchill Empfang
09.12.2018 23:50 6,2 °C 90 % 1010,5 hPa 0,0 l/m² 7,5 km/h 0 min 0,0 UV-I 0 W/m² 5,3 °C 100 %
09.12.2018 23:40 6,0 °C 90 % 1010,3 hPa 0,0 l/m² 4,0 km/h 0 min 0,0 UV-I 0 W/m² 6,0 °C 100 %
09.12.2018 23:30 5,9 °C 89 % 1010,2 hPa 0,0 l/m² 5,5 km/h 0 min 0,0 UV-I 0 W/m² 5,9 °C 100 %
09.12.2018 23:20 5,8 °C 88 % 1010,2 hPa 0,0 l/m² 9,5 km/h 0 min 0,0 UV-I 0 W/m² 3,3 °C 100 %
09.12.2018 23:10 5,9 °C 86 % 1009,8 hPa 0,2 l/m² 13,6 km/h 0 min 0,0 UV-I 0 W/m² 0,9 °C 91 %
09.12.2018 23:00 6,6 °C 85 % 1009,7 hPa 0,0 l/m² 12,1 km/h 0 min 0,0 UV-I 0 W/m² 2,5 °C 100 %
09.12.2018 22:50 6,7 °C 86 % 1009,4 hPa 0,0 l/m² 8,1 km/h 0 min 0,0 UV-I 0 W/m² 5,3 °C 100 %
09.12.2018 22:40 6,8 °C 86 % 1009,1 hPa 0,0 l/m² 8,0 km/h 0 min 0,0 UV-I 0 W/m² 5,5 °C 100 %
09.12.2018 22:30 6,8 °C 85 % 1008,9 hPa 0,0 l/m² 11,2 km/h 0 min 0,0 UV-I 0 W/m² 3,3 °C 100 %
09.12.2018 22:20 6,8 °C 85 % 1008,8 hPa 0,0 l/m² 11,2 km/h 0 min 0,0 UV-I 0 W/m² 3,3 °C 100 %
09.12.2018 22:10 6,8 °C 87 % 1008,7 hPa 0,0 l/m² 9,5 km/h 0 min 0,0 UV-I 0 W/m² 4,4 °C 100 %
09.12.2018 22:00 6,7 °C 87 % 1008,7 hPa 0,0 l/m² 8,5 km/h 0 min 0,0 UV-I 0 W/m² 5,0 °C 100 %
09.12.2018 21:50 6,7 °C 87 % 1008,4 hPa 0,0 l/m² 8,2 km/h 0 min 0,0 UV-I 0 W/m² 5,2 °C 100 %
09.12.2018 21:40 6,7 °C 88 % 1008,3 hPa 0,0 l/m² 7,5 km/h 0 min 0,0 UV-I 0 W/m² 5,8 °C 100 %
09.12.2018 21:30 6,7 °C 87 % 1008,1 hPa 0,0 l/m² 8,6 km/h 0 min 0,0 UV-I 0 W/m² 4,9 °C 100 %
09.12.2018 21:20 6,7 °C 87 % 1008,0 hPa 0,0 l/m² 8,1 km/h 0 min 0,0 UV-I 0 W/m² 5,3 °C 100 %
09.12.2018 21:10 6,8 °C 87 % 1007,8 hPa 0,2 l/m² 7,6 km/h 0 min 0,0 UV-I 0 W/m² 5,8 °C 100 %
09.12.2018 21:00 6,9 °C 86 % 1007,7 hPa 0,0 l/m² 7,9 km/h 0 min 0,0 UV-I 0 W/m² 5,7 °C 100 %
09.12.2018 20:50 6,9 °C 86 % 1007,3 hPa 0,0 l/m² 9,3 km/h 0 min 0,0 UV-I 0 W/m² 4,6 °C 100 %
09.12.2018 20:40 6,7 °C 88 % 1007,2 hPa 0,0 l/m² 7,7 km/h 0 min 0,0 UV-I 0 W/m² 5,6 °C 100 %
09.12.2018 20:30 6,6 °C 89 % 1006,9 hPa 0,0 l/m² 3,7 km/h 0 min 0,0 UV-I 0 W/m² 6,6 °C 100 %
09.12.2018 20:20 6,6 °C 89 % 1006,8 hPa 0,0 l/m² 5,3 km/h 0 min 0,0 UV-I 0 W/m² 6,6 °C 100 %
09.12.2018 20:10 6,5 °C 89 % 1006,7 hPa 0,0 l/m² 3,8 km/h 0 min 0,0 UV-I 0 W/m² 6,5 °C 100 %
09.12.2018 20:00 6,6 °C 89 % 1006,6 hPa 0,0 l/m² 3,7 km/h 0 min 0,0 UV-I 0 W/m² 6,6 °C 100 %
09.12.2018 19:50 6,7 °C 88 % 1006,4 hPa 0,0 l/m² 2,7 km/h 0 min 0,0 UV-I 0 W/m² 6,7 °C 100 %
09.12.2018 19:40 6,8 °C 87 % 1006,3 hPa 0,0 l/m² 4,1 km/h 0 min 0,0 UV-I 0 W/m² 6,8 °C 100 %
09.12.2018 19:30 6,8 °C 87 % 1006,2 hPa 0,0 l/m² 6,2 km/h 0 min 0,0 UV-I 0 W/m² 6,8 °C 100 %
09.12.2018 19:21 6,9 °C 86 % 1006,1 hPa 0,0 l/m² 7,3 km/h 0 min 0,0 UV-I 0 W/m² 6,2 °C 99 %
09.12.2018 19:10 6,9 °C 86 % 1005,9 hPa 0,0 l/m² 10,2 km/h 0 min 0,0 UV-I 0 W/m² 4,0 °C 99 %
09.12.2018 19:00 6,9 °C 87 % 1005,9 hPa 0,0 l/m² 6,9 km/h 0 min 0,0 UV-I 0 W/m² 6,5 °C 100 %
09.12.2018 18:50 6,9 °C 87 % 1005,8 hPa 0,0 l/m² 8,8 km/h 0 min 0,0 UV-I 0 W/m² 5,0 °C 100 %
09.12.2018 18:40 6,8 °C 88 % 1005,7 hPa 0,0 l/m² 12,2 km/h 0 min 0,0 UV-I 0 W/m² 2,7 °C 100 %
09.12.2018 18:30 6,6 °C 91 % 1005,6 hPa 0,2 l/m² 8,3 km/h 0 min 0,0 UV-I 0 W/m² 5,1 °C 100 %
09.12.2018 18:20 6,4 °C 91 % 1005,5 hPa 0,0 l/m² 4,8 km/h 0 min 0,0 UV-I 0 W/m² 6,4 °C 100 %
09.12.2018 18:10 6,4 °C 91 % 1005,3 hPa 0,0 l/m² 3,7 km/h 0 min 0,0 UV-I 0 W/m² 6,4 °C 100 %
09.12.2018 18:00 6,4 °C 91 % 1005,1 hPa 0,0 l/m² 4,8 km/h 0 min 0,0 UV-I 0 W/m² 6,4 °C 100 %
09.12.2018 17:50 6,3 °C 91 % 1005,0 hPa 0,0 l/m² 4,3 km/h 0 min 0,0 UV-I 0 W/m² 6,3 °C 100 %
09.12.2018 17:40 6,3 °C 91 % 1005,0 hPa 0,0 l/m² 4,5 km/h 0 min 0,0 UV-I 0 W/m² 6,3 °C 100 %
09.12.2018 17:30 6,3 °C 91 % 1005,0 hPa 0,0 l/m² 4,6 km/h 0 min 0,0 UV-I 0 W/m² 6,3 °C 100 %
09.12.2018 17:20 6,3 °C 91 % 1005,0 hPa 0,0 l/m² 5,1 km/h 0 min 0,0 UV-I 0 W/m² 6,3 °C 100 %
09.12.2018 17:10 6,2 °C 91 % 1005,0 hPa 0,2 l/m² 4,7 km/h 0 min 0,0 UV-I 0 W/m² 6,2 °C 100 %
09.12.2018 17:00 6,3 °C 91 % 1005,0 hPa 0,2 l/m² 3,6 km/h 0 min 0,0 UV-I 0 W/m² 6,3 °C 100 %
09.12.2018 16:50 6,3 °C 91 % 1005,1 hPa 0,2 l/m² 3,6 km/h 0 min 0,0 UV-I 0 W/m² 6,3 °C 100 %
09.12.2018 16:40 6,3 °C 91 % 1005,1 hPa 0,0 l/m² 3,4 km/h 0 min 0,0 UV-I 0 W/m² 6,3 °C 100 %
09.12.2018 16:30 6,3 °C 91 % 1005,1 hPa 0,0 l/m² 2,3 km/h 0 min 0,0 UV-I 0 W/m² 6,3 °C 100 %
09.12.2018 16:20 6,2 °C 91 % 1005,1 hPa 0,0 l/m² 3,2 km/h 0 min 0,0 UV-I 0 W/m² 6,2 °C 100 %
09.12.2018 16:10 6,2 °C 91 % 1005,1 hPa 0,0 l/m² 2,5 km/h 0 min 0,0 UV-I 0 W/m² 6,2 °C 100 %
09.12.2018 16:00 6,1 °C 90 % 1005,2 hPa 0,0 l/m² 2,3 km/h 0 min 0,0 UV-I 0 W/m² 6,1 °C 100 %
09.12.2018 15:50 6,1 °C 90 % 1005,2 hPa 0,0 l/m² 2,0 km/h 0 min 0,0 UV-I 0 W/m² 6,1 °C 100 %
09.12.2018 15:40 6,1 °C 90 % 1005,2 hPa 0,0 l/m² 1,8 km/h 0 min 0,0 UV-I 6 W/m² 6,1 °C 100 %
09.12.2018 15:30 6,2 °C 89 % 1005,2 hPa 0,2 l/m² 5,3 km/h 0 min 0,0 UV-I 9 W/m² 6,2 °C 100 %
09.12.2018 15:20 6,3 °C 89 % 1005,1 hPa 0,0 l/m² 4,3 km/h 0 min 0,0 UV-I 12 W/m² 6,3 °C 100 %
09.12.2018 15:10 6,4 °C 88 % 1005,0 hPa 0,2 l/m² 4,8 km/h 0 min 0,0 UV-I 9 W/m² 6,4 °C 99 %
09.12.2018 15:00 6,7 °C 86 % 1004,8 hPa 0,6 l/m² 5,9 km/h 0 min 0,0 UV-I 5 W/m² 6,7 °C 100 %
09.12.2018 14:50 7,1 °C 84 % 1004,7 hPa 0,2 l/m² 5,6 km/h 0 min 0,0 UV-I 10 W/m² 7,1 °C 100 %
09.12.2018 14:40 7,3 °C 83 % 1004,8 hPa 0,0 l/m² 5,5 km/h 0 min 0,0 UV-I 10 W/m² 7,3 °C 100 %
09.12.2018 14:30 7,6 °C 82 % 1004,8 hPa 0,0 l/m² 6,2 km/h 0 min 0,0 UV-I 13 W/m² 7,6 °C 100 %
09.12.2018 14:20 7,7 °C 82 % 1004,5 hPa 0,0 l/m² 7,7 km/h 0 min 0,0 UV-I 22 W/m² 6,7 °C 100 %
09.12.2018 14:10 7,7 °C 82 % 1004,6 hPa 0,0 l/m² 9,7 km/h 0 min 0,0 UV-I 38 W/m² 5,2 °C 100 %
09.12.2018 14:00 7,8 °C 82 % 1004,5 hPa 0,0 l/m² 9,7 km/h 0 min 0,0 UV-I 61 W/m² 5,4 °C 100 %
09.12.2018 13:50 7,8 °C 82 % 1004,3 hPa 0,0 l/m² 8,2 km/h 0 min 0,0 UV-I 34 W/m² 6,4 °C 100 %
09.12.2018 13:40 7,6 °C 83 % 1004,3 hPa 0,0 l/m² 6,9 km/h 0 min 0,0 UV-I 31 W/m² 7,2 °C 100 %
09.12.2018 13:30 7,6 °C 84 % 1004,2 hPa 0,0 l/m² 6,0 km/h 0 min 0,0 UV-I 29 W/m² 7,6 °C 100 %
09.12.2018 13:20 7,4 °C 85 % 1004,3 hPa 0,0 l/m² 7,4 km/h 0 min 0,0 UV-I 45 W/m² 6,6 °C 100 %
09.12.2018 13:10 7,3 °C 87 % 1004,3 hPa 0,0 l/m² 6,1 km/h 0 min 0,0 UV-I 51 W/m² 7,3 °C 100 %
09.12.2018 13:00 6,9 °C 88 % 1004,3 hPa 0,0 l/m² 5,6 km/h 0 min 0,0 UV-I 39 W/m² 6,9 °C 99 %
09.12.2018 12:50 6,7 °C 90 % 1004,4 hPa 0,0 l/m² 5,5 km/h 0 min 0,0 UV-I 27 W/m² 6,7 °C 100 %
09.12.2018 12:40 6,6 °C 90 % 1004,5 hPa 0,0 l/m² 2,8 km/h 0 min 0,3 UV-I 54 W/m² 6,6 °C 100 %
09.12.2018 12:30 6,4 °C 90 % 1004,6 hPa 0,0 l/m² 4,2 km/h 0 min 0,2 UV-I 55 W/m² 6,4 °C 100 %
09.12.2018 12:20 6,3 °C 90 % 1004,8 hPa 0,0 l/m² 4,0 km/h 0 min 0,1 UV-I 48 W/m² 6,3 °C 99 %
09.12.2018 12:10 6,2 °C 89 % 1005,0 hPa 0,0 l/m² 6,7 km/h 0 min 0,0 UV-I 33 W/m² 6,0 °C 100 %
09.12.2018 12:00 6,2 °C 89 % 1005,0 hPa 0,0 l/m² 7,5 km/h 0 min 0,0 UV-I 24 W/m² 5,3 °C 100 %
09.12.2018 11:50 6,4 °C 88 % 1005,0 hPa 0,2 l/m² 8,8 km/h 0 min 0,0 UV-I 18 W/m² 4,5 °C 100 %
09.12.2018 11:40 6,6 °C 88 % 1004,9 hPa 0,0 l/m² 6,9 km/h 0 min 0,0 UV-I 23 W/m² 6,2 °C 99 %
09.12.2018 11:30 6,7 °C 88 % 1004,6 hPa 0,0 l/m² 5,4 km/h 0 min 0,0 UV-I 26 W/m² 6,7 °C 99 %
09.12.2018 11:20 6,8 °C 87 % 1004,6 hPa 0,4 l/m² 6,4 km/h 0 min 0,0 UV-I 19 W/m² 6,8 °C 100 %
09.12.2018 11:10 6,9 °C 86 % 1004,3 hPa 0,2 l/m² 4,7 km/h 0 min 0,0 UV-I 17 W/m² 6,9 °C 100 %
09.12.2018 11:00 7,1 °C 85 % 1004,2 hPa 0,0 l/m² 5,7 km/h 0 min 0,0 UV-I 20 W/m² 7,1 °C 100 %
09.12.2018 10:50 7,1 °C 84 % 1004,0 hPa 0,0 l/m² 5,5 km/h 0 min 0,0 UV-I 32 W/m² 7,1 °C 100 %
09.12.2018 10:40 7,2 °C 84 % 1004,0 hPa 0,0 l/m² 4,4 km/h 0 min 0,0 UV-I 33 W/m² 7,2 °C 100 %
09.12.2018 10:30 7,3 °C 84 % 1003,8 hPa 0,0 l/m² 4,5 km/h 0 min 0,0 UV-I 29 W/m² 7,3 °C 100 %
09.12.2018 10:20 7,4 °C 83 % 1003,8 hPa 0,0 l/m² 6,1 km/h 0 min 0,0 UV-I 40 W/m² 7,4 °C 100 %
09.12.2018 10:10 7,7 °C 82 % 1003,7 hPa 0,2 l/m² 6,0 km/h 0 min 0,0 UV-I 44 W/m² 7,7 °C 100 %
09.12.2018 10:00 7,8 °C 80 % 1003,8 hPa 0,0 l/m² 7,3 km/h 0 min 0,0 UV-I 23 W/m² 7,1 °C 100 %
09.12.2018 09:50 7,8 °C 80 % 1003,8 hPa 0,0 l/m² 6,4 km/h 0 min 0,0 UV-I 26 W/m² 7,8 °C 100 %
09.12.2018 09:40 7,8 °C 80 % 1003,7 hPa 0,0 l/m² 7,5 km/h 0 min 0,0 UV-I 25 W/m² 6,9 °C 100 %
09.12.2018 09:30 7,8 °C 81 % 1003,7 hPa 0,0 l/m² 6,1 km/h 0 min 0,0 UV-I 17 W/m² 7,8 °C 100 %
09.12.2018 09:20 7,8 °C 81 % 1003,5 hPa 0,0 l/m² 6,8 km/h 0 min 0,0 UV-I 22 W/m² 7,5 °C 100 %
09.12.2018 09:10 7,7 °C 82 % 1003,1 hPa 0,0 l/m² 7,7 km/h 0 min 0,0 UV-I 18 W/m² 6,7 °C 100 %
09.12.2018 09:00 7,7 °C 84 % 1003,2 hPa 0,0 l/m² 5,0 km/h 0 min 0,0 UV-I 8 W/m² 7,7 °C 91 %
09.12.2018 08:50 7,9 °C 83 % 1003,3 hPa 0,0 l/m² 5,3 km/h 0 min 0,0 UV-I 4 W/m² 7,9 °C 100 %
09.12.2018 08:40 8,1 °C 82 % 1003,1 hPa 0,0 l/m² 6,8 km/h 0 min 0,0 UV-I 3 W/m² 7,8 °C 100 %
09.12.2018 08:30 8,0 °C 82 % 1003,0 hPa 0,0 l/m² 9,7 km/h 0 min 0,0 UV-I 8 W/m² 5,6 °C 100 %
09.12.2018 08:20 7,8 °C 83 % 1002,8 hPa 0,0 l/m² 6,1 km/h 0 min 0,0 UV-I 6 W/m² 7,8 °C 100 %
09.12.2018 08:10 7,7 °C 84 % 1002,6 hPa 0,0 l/m² 5,8 km/h 0 min 0,0 UV-I 3 W/m² 7,7 °C 100 %
09.12.2018 08:00 7,6 °C 85 % 1002,6 hPa 0,0 l/m² 4,2 km/h 0 min 0,0 UV-I 0 W/m² 7,6 °C 100 %
09.12.2018 07:50 7,5 °C 85 % 1002,8 hPa 0,0 l/m² 4,2 km/h 0 min 0,0 UV-I 0 W/m² 7,5 °C 100 %
09.12.2018 07:40 7,4 °C 85 % 1002,6 hPa 0,0 l/m² 2,6 km/h 0 min 0,0 UV-I 0 W/m² 7,4 °C 91 %
09.12.2018 07:30 7,5 °C 86 % 1002,5 hPa 0,0 l/m² 4,4 km/h 0 min 0,0 UV-I 0 W/m² 7,5 °C 100 %
09.12.2018 07:20 7,6 °C 86 % 1002,4 hPa 0,0 l/m² 5,4 km/h 0 min 0,0 UV-I 0 W/m² 7,6 °C 100 %
09.12.2018 07:10 7,6 °C 87 % 1002,1 hPa 0,2 l/m² 9,5 km/h 0 min 0,0 UV-I 0 W/m² 5,3 °C 99 %
09.12.2018 07:00 7,8 °C 88 % 1001,9 hPa 0,4 l/m² 8,8 km/h 0 min 0,0 UV-I 0 W/m² 6,0 °C 100 %
09.12.2018 06:50 8,2 °C 87 % 1002,3 hPa 0,6 l/m² 6,8 km/h 0 min 0,0 UV-I 0 W/m² 7,9 °C 100 %
09.12.2018 06:40 8,3 °C 86 % 1001,6 hPa 0,0 l/m² 5,0 km/h 0 min 0,0 UV-I 0 W/m² 8,3 °C 100 %
09.12.2018 06:30 8,5 °C 85 % 1001,4 hPa 0,2 l/m² 5,1 km/h 0 min 0,0 UV-I 0 W/m² 8,5 °C 100 %
09.12.2018 06:20 8,7 °C 84 % 1001,6 hPa 0,0 l/m² 8,0 km/h 0 min 0,0 UV-I 0 W/m² 7,5 °C 100 %
09.12.2018 06:10 9,0 °C 83 % 1001,7 hPa 0,2 l/m² 6,7 km/h 0 min 0,0 UV-I 0 W/m² 8,8 °C 100 %
09.12.2018 06:00 9,3 °C 80 % 1001,6 hPa 0,2 l/m² 8,5 km/h 0 min 0,0 UV-I 0 W/m² 7,8 °C 100 %
09.12.2018 05:50 9,1 °C 79 % 1001,6 hPa 0,0 l/m² 6,7 km/h 0 min 0,0 UV-I 0 W/m² 8,9 °C 100 %
09.12.2018 05:40 8,8 °C 80 % 1001,7 hPa 0,0 l/m² 2,4 km/h 0 min 0,0 UV-I 0 W/m² 8,8 °C 100 %
09.12.2018 05:30 8,7 °C 80 % 1001,7 hPa 0,0 l/m² 1,1 km/h 0 min 0,0 UV-I 0 W/m² 8,7 °C 100 %
09.12.2018 05:20 8,7 °C 80 % 1001,8 hPa 0,0 l/m² 3,1 km/h 0 min 0,0 UV-I 0 W/m² 8,7 °C 100 %
09.12.2018 05:10 8,6 °C 80 % 1002,0 hPa 0,0 l/m² 2,5 km/h 0 min 0,0 UV-I 0 W/m² 8,6 °C 100 %
09.12.2018 05:00 8,5 °C 80 % 1002,2 hPa 0,0 l/m² 2,5 km/h 0 min 0,0 UV-I 0 W/m² 8,5 °C 99 %
09.12.2018 04:50 8,3 °C 81 % 1002,5 hPa 0,0 l/m² 2,2 km/h 0 min 0,0 UV-I 0 W/m² 8,3 °C 100 %
09.12.2018 04:40 7,9 °C 83 % 1002,6 hPa 0,0 l/m² 2,6 km/h 0 min 0,0 UV-I 0 W/m² 7,9 °C 100 %
09.12.2018 04:30 7,3 °C 85 % 1002,6 hPa 0,0 l/m² 1,2 km/h 0 min 0,0 UV-I 0 W/m² 7,3 °C 100 %
09.12.2018 04:20 7,1 °C 85 % 1002,4 hPa 0,0 l/m² 0,2 km/h 0 min 0,0 UV-I 0 W/m² 7,1 °C 100 %
09.12.2018 04:10 7,2 °C 85 % 1002,6 hPa 0,0 l/m² 0,4 km/h 0 min 0,0 UV-I 0 W/m² 7,2 °C 100 %
09.12.2018 04:00 7,3 °C 85 % 1002,8 hPa 0,0 l/m² 0,0 km/h 0 min 0,0 UV-I 0 W/m² 7,3 °C 100 %
09.12.2018 03:50 7,4 °C 84 % 1002,9 hPa 0,0 l/m² 0,0 km/h 0 min 0,0 UV-I 0 W/m² 7,4 °C 100 %
09.12.2018 03:40 7,5 °C 83 % 1003,4 hPa 0,0 l/m² 0,0 km/h 0 min 0,0 UV-I 0 W/m² 7,5 °C 91 %
09.12.2018 03:30 7,6 °C 82 % 1003,5 hPa 0,0 l/m² 0,0 km/h 0 min 0,0 UV-I 0 W/m² 7,6 °C 100 %
09.12.2018 03:20 7,7 °C 82 % 1003,7 hPa 0,2 l/m² 1,1 km/h 0 min 0,0 UV-I 0 W/m² 7,7 °C 100 %
09.12.2018 03:10 7,7 °C 81 % 1003,9 hPa 0,0 l/m² 0,9 km/h 0 min 0,0 UV-I 0 W/m² 7,7 °C 99 %
09.12.2018 03:00 7,7 °C 81 % 1004,4 hPa 0,0 l/m² 0,9 km/h 0 min 0,0 UV-I 0 W/m² 7,7 °C 100 %
09.12.2018 02:50 7,6 °C 80 % 1004,7 hPa 0,0 l/m² 1,2 km/h 0 min 0,0 UV-I 0 W/m² 7,6 °C 99 %
09.12.2018 02:40 7,6 °C 79 % 1005,0 hPa 0,0 l/m² 3,1 km/h 0 min 0,0 UV-I 0 W/m² 7,6 °C 100 %
09.12.2018 02:30 7,5 °C 78 % 1005,2 hPa 0,0 l/m² 3,2 km/h 0 min 0,0 UV-I 0 W/m² 7,5 °C 100 %
09.12.2018 02:20 7,4 °C 78 % 1005,5 hPa 0,0 l/m² 1,0 km/h 0 min 0,0 UV-I 0 W/m² 7,4 °C 100 %
09.12.2018 02:10 7,4 °C 77 % 1005,4 hPa 0,0 l/m² 0,1 km/h 0 min 0,0 UV-I 0 W/m² 7,4 °C 100 %
09.12.2018 02:00 7,4 °C 77 % 1005,3 hPa 0,0 l/m² 0,0 km/h 0 min 0,0 UV-I 0 W/m² 7,4 °C 100 %
09.12.2018 01:50 7,5 °C 76 % 1005,5 hPa 0,0 l/m² 0,6 km/h 0 min 0,0 UV-I 0 W/m² 7,5 °C 100 %
09.12.2018 01:40 7,6 °C 75 % 1005,8 hPa 0,0 l/m² 1,1 km/h 0 min 0,0 UV-I 0 W/m² 7,6 °C 100 %
09.12.2018 01:30 7,6 °C 74 % 1006,0 hPa 0,2 l/m² 1,8 km/h 0 min 0,0 UV-I 0 W/m² 7,6 °C 100 %
09.12.2018 01:20 7,4 °C 73 % 1006,6 hPa 0,0 l/m² 0,9 km/h 0 min 0,0 UV-I 0 W/m² 7,4 °C 100 %
09.12.2018 01:10 7,6 °C 73 % 1006,7 hPa 0,0 l/m² 0,0 km/h 0 min 0,0 UV-I 0 W/m² 7,6 °C 100 %
09.12.2018 01:00 7,8 °C 73 % 1006,8 hPa 0,0 l/m² 0,0 km/h 0 min 0,0 UV-I 0 W/m² 7,8 °C 99 %
09.12.2018 00:50 7,9 °C 72 % 1006,9 hPa 0,0 l/m² 0,0 km/h 0 min 0,0 UV-I 0 W/m² 7,9 °C 100 %
09.12.2018 00:40 7,9 °C 70 % 1007,1 hPa 0,0 l/m² 0,0 km/h 0 min 0,0 UV-I 0 W/m² 7,9 °C 100 %
09.12.2018 00:30 7,9 °C 69 % 1007,5 hPa 0,0 l/m² 0,0 km/h 0 min 0,0 UV-I 0 W/m² 7,9 °C 100 %
09.12.2018 00:20 7,9 °C 70 % 1007,6 hPa 0,0 l/m² 0,0 km/h 0 min 0,0 UV-I 0 W/m² 7,9 °C 100 %
09.12.2018 00:10 8,1 °C 70 % 1007,9 hPa 0,0 l/m² 0,0 km/h 0 min 0,0 UV-I 0 W/m² 8,1 °C 99 %
09.12.2018 00:00 8,3 °C 69 % 1008,0 hPa 0,0 l/m² 0,0 km/h 0 min 0,0 UV-I 0 W/m² 8,3 °C 99 %
_ Min-Zeit 23:20 00:30 06:30 - 04:00 - - - 23:10 03:40
Minimum _ 5,8 °C 69 % 1001,4 hPa - 0,0 km/h - - - 0,9 °C 91 %
_ Max-Zeit 06:00 18:30 23:50 15:00 23:10 23:50 12:40 14:00 05:50 23:40
Maximum _ 9,3 °C 91 % 1010,5 hPa 0,6 l/m² 13,6 km/h
NW
0 min 0,3 UV-I 61 W/m² 8,9 °C 100 %
Durchschnitt _ 7,2 °C 84 % 1005,0 hPa #5,6 l/m² 5,0 km/h #0 min. 0,2 UV-I 8 W/m² 6,7 °C 100 %